SBVT/VIX METAR and TAF weather

Enter ICAO airport designator
Station Type Date Time Source
SBVT METAR 2020/04/06 10:00 UTC NOAA

SBVT 061000Z 14003KT 9999 FEW025 SCT035 23/21 Q1017


Station Type Date Time Source
SBVT Decoded METAR 2020/04/06 10:00 UTC NOAA

Vitoria Aeroporto , Brazil (SBVT) 20-16S 040-17W 4M
Apr 06, 2020 - 06:00 AM EDT / 2020.04.06 1000 UTC
Wind: from the SE (140 degrees) at 3 MPH (3 KT):0
Visibility: greater than 7 mile(s):0
Sky conditions: partly cloudy
Temperature: 73 F (23 C)
Dew Point: 69 F (21 C)
Relative Humidity: 88%
Pressure (altimeter): 30.03 in. Hg (1017 hPa)
ob: SBVT 061000Z 14003KT 9999 FEW025 SCT035 23/21 Q1017
cycle: 10

Station Type Date Time Source
SBVT TAF 2020/04/06 06:12 UTC NOAA

TAF SBVT 060300Z 0606/0706 28003KT 9000 OVC040 TN24/0609Z TX27/0616Z
BECMG 0611/0613 24008KT BKN045
BECMG 0616/0618 17008KT SCT030
BECMG 0622/0624 19005KT BKN040
BECMG 0700/0702 24008KT 8000 OVC040
RMK PAY

Example: see airport list